Lincoln Airport
KLNK : now visible

Airfield :











YOU CAN JOIN US ON...

 
LOGIN :

Register | Disclaimer

   EN    FR    IT 

 









Legend :    VFR   Marginal VFR   IFR   Intensive IFR   Very Intensive IFR
Visi :
Ceiling :
>= 8 km
>= 3000ft
5 to 8 km
1000 to 3000 ft
1500m to 5 km
500 to 1000 ft
800 to 1500m
200 to 500 ft
< 800m
< 200 ft
Symbols :   Thunderstorms  Fog  Heavy snow  Heavy precipitations  Wind > 20 kt






- Airport Elevation : 1219 ft
- IATA code : LNK


KLNK - Lincoln

CURRENT METAR :
  • 282154Z 36008G16KT 10SM BKN100 26/07 A3013 RMK AO2 SLP194 T02610072

EXPIRED METARs :
  • 282054Z 34010KT 10SM BKN100 27/08 A3013 RMK AO2 SLP195 T02720078 56004
  • 281954Z 01009KT 10SM BKN090 OVC110 26/07 A3014 RMK AO2 SLP199 T02610072
  • 281854Z 04008KT 10SM BKN085 26/08 A3014 RMK AO2 SLP197 T02610083
  • 281754Z 34010G19KT 10SM BKN090 27/07 A3014 RMK AO2 SLP200 T02670067 10278 20139 58000

TAF KLNK
Valid from the 28 at 18:00 until the 29 at 18:00 UTC


281720Z 2818/2918 35012G21KT P6SM FEW070
FM290100 05004KT P6SM FEW100
FM291200 11006KT P6SM FEW070
KZMP FIR / North America



MET'MAP, your aeronautical weather chart ! - Copyright ORBIFLY December 2007 - Disclaimer

ORBIFLY MET'MAP TEAM :

Programming & Development : Alexandra Zaïnal
Original concept : Baudouin d'Aumeries
Technical & hardware support : Manuel Goepfert
Assistance : Marc-Olivier Méhu




SOURCES & CREDITS :

   NOAA       Earth
Advisory